sensor_id;sensor_type;location;lat;lon;timestamp;P1;durP1;ratioP1;P2;durP2;ratioP2
13408;SDS011;6775;49.574;11.170;2023-05-07T00:00:44;1.83;;;1.73;;
13408;SDS011;6775;49.574;11.170;2023-05-07T00:03:12;1.80;;;1.57;;
13408;SDS011;6775;49.574;11.170;2023-05-07T00:05:40;2.10;;;1.63;;
13408;SDS011;6775;49.574;11.170;2023-05-07T00:08:08;2.27;;;1.77;;
13408;SDS011;6775;49.574;11.170;2023-05-07T00:10:36;2.77;;;1.90;;
13408;SDS011;6775;49.574;11.170;2023-05-07T00:13:05;2.60;;;2.20;;
13408;SDS011;6775;49.574;11.170;2023-05-07T00:15:33;2.40;;;1.80;;
13408;SDS011;6775;49.574;11.170;2023-05-07T00:18:01;2.00;;;1.80;;
13408;SDS011;6775;49.574;11.170;2023-05-07T00:20:29;3.07;;;1.90;;
13408;SDS011;6775;49.574;11.170;2023-05-07T00:22:56;2.60;;;1.83;;
13408;SDS011;6775;49.574;11.170;2023-05-07T00:25:24;2.50;;;2.13;;
13408;SDS011;6775;49.574;11.170;2023-05-07T00:27:52;2.40;;;2.23;;
13408;SDS011;6775;49.574;11.170;2023-05-07T00:30:21;2.30;;;2.10;;
13408;SDS011;6775;49.574;11.170;2023-05-07T00:32:49;2.80;;;1.97;;
13408;SDS011;6775;49.574;11.170;2023-05-07T00:35:17;2.90;;;2.27;;
13408;SDS011;6775;49.574;11.170;2023-05-07T00:37:45;2.30;;;2.03;;
13408;SDS011;6775;49.574;11.170;2023-05-07T00:40:14;2.90;;;2.10;;
13408;SDS011;6775;49.574;11.170;2023-05-07T00:42:42;2.33;;;2.13;;
13408;SDS011;6775;49.574;11.170;2023-05-07T00:45:13;2.67;;;2.47;;
13408;SDS011;6775;49.574;11.170;2023-05-07T00:47:42;2.50;;;2.23;;
13408;SDS011;6775;49.574;11.170;2023-05-07T00:50:11;2.30;;;2.10;;
13408;SDS011;6775;49.574;11.170;2023-05-07T00:52:39;2.50;;;2.30;;
13408;SDS011;6775;49.574;11.170;2023-05-07T00:55:08;2.50;;;2.23;;
13408;SDS011;6775;49.574;11.170;2023-05-07T00:57:37;2.83;;;2.43;;
13408;SDS011;6775;49.574;11.170;2023-05-07T01:00:08;2.77;;;2.57;;
13408;SDS011;6775;49.574;11.170;2023-05-07T01:02:38;2.73;;;2.53;;
13408;SDS011;6775;49.574;11.170;2023-05-07T01:05:09;3.40;;;2.67;;
13408;SDS011;6775;49.574;11.170;2023-05-07T01:07:39;3.00;;;2.77;;
13408;SDS011;6775;49.574;11.170;2023-05-07T01:10:08;4.00;;;3.13;;
13408;SDS011;6775;49.574;11.170;2023-05-07T01:12:38;3.20;;;2.77;;
13408;SDS011;6775;49.574;11.170;2023-05-07T01:15:07;2.83;;;2.63;;
13408;SDS011;6775;49.574;11.170;2023-05-07T01:17:36;4.27;;;3.10;;
13408;SDS011;6775;49.574;11.170;2023-05-07T01:20:05;2.93;;;2.73;;
13408;SDS011;6775;49.574;11.170;2023-05-07T01:22:36;2.70;;;2.50;;
13408;SDS011;6775;49.574;11.170;2023-05-07T01:25:06;6.53;;;3.37;;
13408;SDS011;6775;49.574;11.170;2023-05-07T01:27:34;3.23;;;2.93;;
13408;SDS011;6775;49.574;11.170;2023-05-07T01:30:03;3.83;;;3.37;;
13408;SDS011;6775;49.574;11.170;2023-05-07T01:32:32;3.60;;;3.30;;
13408;SDS011;6775;49.574;11.170;2023-05-07T01:35:07;3.00;;;2.70;;
13408;SDS011;6775;49.574;11.170;2023-05-07T01:37:39;3.77;;;3.47;;
13408;SDS011;6775;49.574;11.170;2023-05-07T01:40:08;3.03;;;2.60;;
13408;SDS011;6775;49.574;11.170;2023-05-07T01:42:37;5.30;;;3.03;;
13408;SDS011;6775;49.574;11.170;2023-05-07T01:45:06;3.90;;;3.50;;
13408;SDS011;6775;49.574;11.170;2023-05-07T01:47:34;5.00;;;3.20;;
13408;SDS011;6775;49.574;11.170;2023-05-07T01:50:04;3.93;;;3.53;;
13408;SDS011;6775;49.574;11.170;2023-05-07T01:52:34;3.93;;;3.60;;
13408;SDS011;6775;49.574;11.170;2023-05-07T01:55:05;3.60;;;3.30;;
13408;SDS011;6775;49.574;11.170;2023-05-07T01:57:34;3.43;;;3.13;;
13408;SDS011;6775;49.574;11.170;2023-05-07T02:00:01;3.80;;;3.40;;
13408;SDS011;6775;49.574;11.170;2023-05-07T02:02:32;4.00;;;3.60;;
13408;SDS011;6775;49.574;11.170;2023-05-07T02:05:00;4.70;;;3.23;;
13408;SDS011;6775;49.574;11.170;2023-05-07T02:07:28;5.87;;;3.60;;
13408;SDS011;6775;49.574;11.170;2023-05-07T02:09:56;3.87;;;3.57;;
13408;SDS011;6775;49.574;11.170;2023-05-07T02:12:25;3.90;;;3.50;;
13408;SDS011;6775;49.574;11.170;2023-05-07T02:14:52;3.30;;;3.00;;
13408;SDS011;6775;49.574;11.170;2023-05-07T02:17:20;3.50;;;3.20;;
13408;SDS011;6775;49.574;11.170;2023-05-07T02:19:48;3.70;;;3.37;;
13408;SDS011;6775;49.574;11.170;2023-05-07T02:22:16;4.67;;;3.40;;
13408;SDS011;6775;49.574;11.170;2023-05-07T02:24:44;4.53;;;4.10;;
13408;SDS011;6775;49.574;11.170;2023-05-07T02:27:11;3.93;;;3.63;;
13408;SDS011;6775;49.574;11.170;2023-05-07T02:29:40;4.43;;;4.03;;
13408;SDS011;6775;49.574;11.170;2023-05-07T02:32:08;5.67;;;4.23;;
13408;SDS011;6775;49.574;11.170;2023-05-07T02:34:36;4.40;;;4.00;;
13408;SDS011;6775;49.574;11.170;2023-05-07T02:37:04;4.37;;;3.80;;
13408;SDS011;6775;49.574;11.170;2023-05-07T02:39:32;5.20;;;3.97;;
13408;SDS011;6775;49.574;11.170;2023-05-07T02:42:00;4.97;;;4.23;;
13408;SDS011;6775;49.574;11.170;2023-05-07T02:44:28;5.03;;;4.53;;
13408;SDS011;6775;49.574;11.170;2023-05-07T02:46:58;5.63;;;4.77;;
13408;SDS011;6775;49.574;11.170;2023-05-07T02:49:26;5.47;;;4.93;;
13408;SDS011;6775;49.574;11.170;2023-05-07T02:51:54;5.07;;;4.57;;
13408;SDS011;6775;49.574;11.170;2023-05-07T02:54:22;5.07;;;4.57;;
13408;SDS011;6775;49.574;11.170;2023-05-07T02:56:50;5.20;;;4.70;;
13408;SDS011;6775;49.574;11.170;2023-05-07T02:59:17;5.20;;;4.70;;
13408;SDS011;6775;49.574;11.170;2023-05-07T03:01:45;7.27;;;5.53;;
13408;SDS011;6775;49.574;11.170;2023-05-07T03:04:15;5.93;;;5.33;;
13408;SDS011;6775;49.574;11.170;2023-05-07T03:06:43;6.00;;;5.33;;
13408;SDS011;6775;49.574;11.170;2023-05-07T03:09:11;6.47;;;5.40;;
13408;SDS011;6775;49.574;11.170;2023-05-07T03:11:39;5.30;;;4.80;;
13408;SDS011;6775;49.574;11.170;2023-05-07T03:14:07;5.97;;;4.83;;
13408;SDS011;6775;49.574;11.170;2023-05-07T03:16:35;6.23;;;5.63;;
13408;SDS011;6775;49.574;11.170;2023-05-07T03:19:03;5.73;;;5.00;;
13408;SDS011;6775;49.574;11.170;2023-05-07T03:21:32;5.80;;;5.20;;
13408;SDS011;6775;49.574;11.170;2023-05-07T03:24:00;7.10;;;5.43;;
13408;SDS011;6775;49.574;11.170;2023-05-07T03:26:28;5.73;;;5.20;;
13408;SDS011;6775;49.574;11.170;2023-05-07T03:28:56;5.17;;;4.67;;
13408;SDS011;6775;49.574;11.170;2023-05-07T03:31:24;7.30;;;6.13;;
13408;SDS011;6775;49.574;11.170;2023-05-07T03:33:52;6.23;;;5.40;;
13408;SDS011;6775;49.574;11.170;2023-05-07T03:36:21;5.43;;;4.93;;
13408;SDS011;6775;49.574;11.170;2023-05-07T03:38:51;5.93;;;5.33;;
13408;SDS011;6775;49.574;11.170;2023-05-07T03:41:18;6.33;;;5.30;;
13408;SDS011;6775;49.574;11.170;2023-05-07T03:43:46;5.67;;;5.17;;
13408;SDS011;6775;49.574;11.170;2023-05-07T03:46:14;6.17;;;5.57;;
13408;SDS011;6775;49.574;11.170;2023-05-07T03:48:42;6.87;;;5.60;;
13408;SDS011;6775;49.574;11.170;2023-05-07T03:51:10;8.13;;;5.90;;
13408;SDS011;6775;49.574;11.170;2023-05-07T03:53:37;7.03;;;6.00;;
13408;SDS011;6775;49.574;11.170;2023-05-07T03:56:07;6.67;;;5.97;;
13408;SDS011;6775;49.574;11.170;2023-05-07T03:58:34;6.33;;;5.50;;
13408;SDS011;6775;49.574;11.170;2023-05-07T04:01:02;6.97;;;5.77;;
13408;SDS011;6775;49.574;11.170;2023-05-07T04:03:30;6.40;;;5.10;;
13408;SDS011;6775;49.574;11.170;2023-05-07T04:05:59;6.23;;;5.63;;
13408;SDS011;6775;49.574;11.170;2023-05-07T04:08:26;6.00;;;5.40;;
13408;SDS011;6775;49.574;11.170;2023-05-07T04:10:54;7.00;;;5.70;;
13408;SDS011;6775;49.574;11.170;2023-05-07T04:13:24;8.20;;;5.73;;
13408;SDS011;6775;49.574;11.170;2023-05-07T04:15:52;6.87;;;4.97;;
13408;SDS011;6775;49.574;11.170;2023-05-07T04:18:21;5.27;;;4.77;;
13408;SDS011;6775;49.574;11.170;2023-05-07T04:20:48;6.27;;;5.13;;
13408;SDS011;6775;49.574;11.170;2023-05-07T04:23:16;5.30;;;4.80;;
13408;SDS011;6775;49.574;11.170;2023-05-07T04:25:44;5.87;;;4.90;;
13408;SDS011;6775;49.574;11.170;2023-05-07T04:28:12;5.70;;;5.20;;
13408;SDS011;6775;49.574;11.170;2023-05-07T04:30:41;5.60;;;5.10;;
13408;SDS011;6775;49.574;11.170;2023-05-07T04:33:09;5.70;;;5.20;;
13408;SDS011;6775;49.574;11.170;2023-05-07T04:35:37;5.37;;;4.87;;
13408;SDS011;6775;49.574;11.170;2023-05-07T04:38:05;5.57;;;4.87;;
13408;SDS011;6775;49.574;11.170;2023-05-07T04:40:35;5.63;;;5.10;;
13408;SDS011;6775;49.574;11.170;2023-05-07T04:43:03;5.83;;;5.27;;
13408;SDS011;6775;49.574;11.170;2023-05-07T04:45:31;6.33;;;5.50;;
13408;SDS011;6775;49.574;11.170;2023-05-07T04:48:01;6.87;;;6.17;;
13408;SDS011;6775;49.574;11.170;2023-05-07T04:50:29;7.37;;;6.43;;
13408;SDS011;6775;49.574;11.170;2023-05-07T04:52:57;6.17;;;5.30;;
13408;SDS011;6775;49.574;11.170;2023-05-07T04:55:25;5.17;;;4.67;;
13408;SDS011;6775;49.574;11.170;2023-05-07T04:57:52;5.07;;;4.57;;
13408;SDS011;6775;49.574;11.170;2023-05-07T05:00:20;5.30;;;4.53;;
13408;SDS011;6775;49.574;11.170;2023-05-07T05:02:49;4.73;;;4.20;;
13408;SDS011;6775;49.574;11.170;2023-05-07T05:05:18;6.47;;;5.50;;
13408;SDS011;6775;49.574;11.170;2023-05-07T05:07:46;8.93;;;7.90;;
13408;SDS011;6775;49.574;11.170;2023-05-07T05:10:14;7.13;;;6.20;;
13408;SDS011;6775;49.574;11.170;2023-05-07T05:12:42;8.67;;;7.77;;
13408;SDS011;6775;49.574;11.170;2023-05-07T05:15:10;9.63;;;7.33;;
13408;SDS011;6775;49.574;11.170;2023-05-07T05:17:38;8.13;;;6.97;;
13408;SDS011;6775;49.574;11.170;2023-05-07T05:20:07;8.07;;;7.03;;
13408;SDS011;6775;49.574;11.170;2023-05-07T05:22:38;9.20;;;6.87;;
13408;SDS011;6775;49.574;11.170;2023-05-07T05:25:06;7.27;;;6.50;;
13408;SDS011;6775;49.574;11.170;2023-05-07T05:27:34;7.90;;;6.20;;
13408;SDS011;6775;49.574;11.170;2023-05-07T05:30:03;7.07;;;6.17;;
13408;SDS011;6775;49.574;11.170;2023-05-07T05:32:31;7.83;;;7.03;;
13408;SDS011;6775;49.574;11.170;2023-05-07T05:35:00;10.20;;;7.67;;
13408;SDS011;6775;49.574;11.170;2023-05-07T05:37:27;8.50;;;7.20;;
13408;SDS011;6775;49.574;11.170;2023-05-07T05:39:57;8.77;;;6.97;;
13408;SDS011;6775;49.574;11.170;2023-05-07T05:42:25;8.60;;;6.67;;
13408;SDS011;6775;49.574;11.170;2023-05-07T05:44:53;11.70;;;7.20;;
13408;SDS011;6775;49.574;11.170;2023-05-07T05:47:21;7.87;;;6.80;;
13408;SDS011;6775;49.574;11.170;2023-05-07T05:49:49;9.87;;;6.73;;
13408;SDS011;6775;49.574;11.170;2023-05-07T05:52:17;7.40;;;6.70;;
13408;SDS011;6775;49.574;11.170;2023-05-07T05:54:45;8.07;;;7.03;;
13408;SDS011;6775;49.574;11.170;2023-05-07T05:57:15;7.60;;;6.40;;
13408;SDS011;6775;49.574;11.170;2023-05-07T05:59:43;8.73;;;6.40;;
13408;SDS011;6775;49.574;11.170;2023-05-07T06:02:11;6.83;;;6.03;;
13408;SDS011;6775;49.574;11.170;2023-05-07T06:04:39;7.43;;;6.30;;
13408;SDS011;6775;49.574;11.170;2023-05-07T06:07:07;7.30;;;6.60;;
13408;SDS011;6775;49.574;11.170;2023-05-07T06:09:35;8.00;;;7.00;;
13408;SDS011;6775;49.574;11.170;2023-05-07T06:12:02;6.47;;;5.73;;
13408;SDS011;6775;49.574;11.170;2023-05-07T06:14:32;7.70;;;6.90;;
13408;SDS011;6775;49.574;11.170;2023-05-07T06:16:59;7.17;;;6.47;;
13408;SDS011;6775;49.574;11.170;2023-05-07T06:19:27;6.87;;;6.20;;
13408;SDS011;6775;49.574;11.170;2023-05-07T06:21:55;8.23;;;6.60;;
13408;SDS011;6775;49.574;11.170;2023-05-07T06:24:23;6.70;;;6.00;;
13408;SDS011;6775;49.574;11.170;2023-05-07T06:26:51;6.47;;;5.87;;
13408;SDS011;6775;49.574;11.170;2023-05-07T06:29:19;5.90;;;5.30;;
13408;SDS011;6775;49.574;11.170;2023-05-07T06:31:48;6.37;;;5.77;;
13408;SDS011;6775;49.574;11.170;2023-05-07T06:34:16;6.73;;;5.73;;
13408;SDS011;6775;49.574;11.170;2023-05-07T06:36:44;6.77;;;6.17;;
13408;SDS011;6775;49.574;11.170;2023-05-07T06:39:12;6.97;;;6.27;;
13408;SDS011;6775;49.574;11.170;2023-05-07T06:41:40;5.87;;;5.37;;
13408;SDS011;6775;49.574;11.170;2023-05-07T06:44:07;5.50;;;5.00;;
13408;SDS011;6775;49.574;11.170;2023-05-07T06:46:35;6.20;;;5.60;;
13408;SDS011;6775;49.574;11.170;2023-05-07T06:49:04;9.27;;;6.07;;
13408;SDS011;6775;49.574;11.170;2023-05-07T06:51:32;9.00;;;6.20;;
13408;SDS011;6775;49.574;11.170;2023-05-07T06:54:01;8.20;;;5.67;;
13408;SDS011;6775;49.574;11.170;2023-05-07T06:56:30;7.57;;;6.43;;
13408;SDS011;6775;49.574;11.170;2023-05-07T06:58:59;6.50;;;5.90;;
13408;SDS011;6775;49.574;11.170;2023-05-07T07:01:27;6.30;;;5.73;;
13408;SDS011;6775;49.574;11.170;2023-05-07T07:03:55;6.03;;;5.43;;
13408;SDS011;6775;49.574;11.170;2023-05-07T07:06:24;6.80;;;5.77;;
13408;SDS011;6775;49.574;11.170;2023-05-07T07:08:53;6.77;;;5.60;;
13408;SDS011;6775;49.574;11.170;2023-05-07T07:11:20;6.03;;;5.43;;
13408;SDS011;6775;49.574;11.170;2023-05-07T07:13:48;6.37;;;5.63;;
13408;SDS011;6775;49.574;11.170;2023-05-07T07:16:16;6.40;;;5.60;;
13408;SDS011;6775;49.574;11.170;2023-05-07T07:18:44;6.70;;;5.90;;
13408;SDS011;6775;49.574;11.170;2023-05-07T07:21:12;6.07;;;5.47;;
13408;SDS011;6775;49.574;11.170;2023-05-07T07:23:41;6.80;;;5.47;;
13408;SDS011;6775;49.574;11.170;2023-05-07T07:26:09;6.07;;;5.47;;
13408;SDS011;6775;49.574;11.170;2023-05-07T07:28:41;5.70;;;5.13;;
13408;SDS011;6775;49.574;11.170;2023-05-07T07:31:11;5.67;;;5.17;;
13408;SDS011;6775;49.574;11.170;2023-05-07T07:33:39;5.47;;;4.97;;
13408;SDS011;6775;49.574;11.170;2023-05-07T07:36:07;6.13;;;5.53;;
13408;SDS011;6775;49.574;11.170;2023-05-07T07:38:35;5.00;;;4.57;;
13408;SDS011;6775;49.574;11.170;2023-05-07T07:41:04;6.43;;;5.47;;
13408;SDS011;6775;49.574;11.170;2023-05-07T07:43:32;6.63;;;5.60;;
13408;SDS011;6775;49.574;11.170;2023-05-07T07:45:59;5.30;;;4.60;;
13408;SDS011;6775;49.574;11.170;2023-05-07T07:48:27;5.63;;;4.87;;
13408;SDS011;6775;49.574;11.170;2023-05-07T07:50:55;5.67;;;5.17;;
13408;SDS011;6775;49.574;11.170;2023-05-07T07:53:23;5.93;;;4.43;;
13408;SDS011;6775;49.574;11.170;2023-05-07T07:55:51;5.47;;;4.90;;
13408;SDS011;6775;49.574;11.170;2023-05-07T07:58:25;6.70;;;4.90;;
13408;SDS011;6775;49.574;11.170;2023-05-07T08:00:53;4.83;;;4.33;;
13408;SDS011;6775;49.574;11.170;2023-05-07T08:03:22;5.63;;;5.10;;
13408;SDS011;6775;49.574;11.170;2023-05-07T08:05:50;5.47;;;4.97;;
13408;SDS011;6775;49.574;11.170;2023-05-07T08:08:18;5.60;;;5.10;;
13408;SDS011;6775;49.574;11.170;2023-05-07T08:10:46;4.87;;;4.47;;
13408;SDS011;6775;49.574;11.170;2023-05-07T08:13:16;4.63;;;4.23;;
13408;SDS011;6775;49.574;11.170;2023-05-07T08:15:45;5.20;;;4.67;;
13408;SDS011;6775;49.574;11.170;2023-05-07T08:18:13;5.00;;;4.50;;
13408;SDS011;6775;49.574;11.170;2023-05-07T08:20:41;5.70;;;4.90;;
13408;SDS011;6775;49.574;11.170;2023-05-07T08:23:09;4.70;;;4.30;;
13408;SDS011;6775;49.574;11.170;2023-05-07T08:25:37;4.70;;;4.30;;
13408;SDS011;6775;49.574;11.170;2023-05-07T08:28:05;5.23;;;4.73;;
13408;SDS011;6775;49.574;11.170;2023-05-07T08:30:35;5.30;;;4.63;;
13408;SDS011;6775;49.574;11.170;2023-05-07T08:33:04;5.03;;;4.53;;
13408;SDS011;6775;49.574;11.170;2023-05-07T08:35:32;4.87;;;4.43;;
13408;SDS011;6775;49.574;11.170;2023-05-07T08:38:00;4.90;;;4.50;;
13408;SDS011;6775;49.574;11.170;2023-05-07T08:40:28;6.70;;;4.70;;
13408;SDS011;6775;49.574;11.170;2023-05-07T08:42:56;4.53;;;4.13;;
13408;SDS011;6775;49.574;11.170;2023-05-07T08:45:25;6.43;;;5.30;;
13408;SDS011;6775;49.574;11.170;2023-05-07T08:47:57;5.17;;;4.67;;
13408;SDS011;6775;49.574;11.170;2023-05-07T08:50:28;5.20;;;4.70;;
13408;SDS011;6775;49.574;11.170;2023-05-07T08:52:56;5.03;;;4.53;;
13408;SDS011;6775;49.574;11.170;2023-05-07T08:55:24;5.77;;;4.97;;
13408;SDS011;6775;49.574;11.170;2023-05-07T08:57:52;5.30;;;4.80;;
13408;SDS011;6775;49.574;11.170;2023-05-07T09:00:20;4.93;;;4.43;;
13408;SDS011;6775;49.574;11.170;2023-05-07T09:02:48;5.10;;;4.60;;
13408;SDS011;6775;49.574;11.170;2023-05-07T09:05:16;5.60;;;5.00;;
13408;SDS011;6775;49.574;11.170;2023-05-07T09:07:46;5.47;;;4.97;;
13408;SDS011;6775;49.574;11.170;2023-05-07T09:10:16;5.37;;;4.57;;
13408;SDS011;6775;49.574;11.170;2023-05-07T09:12:44;5.37;;;4.70;;
13408;SDS011;6775;49.574;11.170;2023-05-07T09:15:14;5.10;;;4.60;;
13408;SDS011;6775;49.574;11.170;2023-05-07T09:17:42;4.37;;;3.97;;
13408;SDS011;6775;49.574;11.170;2023-05-07T09:20:11;4.70;;;4.30;;
13408;SDS011;6775;49.574;11.170;2023-05-07T09:22:39;4.50;;;4.10;;
13408;SDS011;6775;49.574;11.170;2023-05-07T09:25:08;4.80;;;4.27;;
13408;SDS011;6775;49.574;11.170;2023-05-07T09:27:36;5.37;;;4.87;;
13408;SDS011;6775;49.574;11.170;2023-05-07T09:30:05;5.07;;;4.57;;
13408;SDS011;6775;49.574;11.170;2023-05-07T09:32:34;4.87;;;4.40;;
13408;SDS011;6775;49.574;11.170;2023-05-07T09:35:04;4.47;;;4.07;;
13408;SDS011;6775;49.574;11.170;2023-05-07T09:37:32;4.63;;;4.17;;
13408;SDS011;6775;49.574;11.170;2023-05-07T09:40:00;4.53;;;4.13;;
13408;SDS011;6775;49.574;11.170;2023-05-07T09:42:31;4.63;;;4.23;;
13408;SDS011;6775;49.574;11.170;2023-05-07T09:44:59;4.50;;;4.10;;
13408;SDS011;6775;49.574;11.170;2023-05-07T09:47:27;5.03;;;4.53;;
13408;SDS011;6775;49.574;11.170;2023-05-07T09:50:01;4.30;;;3.90;;
13408;SDS011;6775;49.574;11.170;2023-05-07T09:52:32;4.83;;;3.60;;
13408;SDS011;6775;49.574;11.170;2023-05-07T09:55:02;6.10;;;4.63;;
13408;SDS011;6775;49.574;11.170;2023-05-07T09:57:33;4.37;;;3.97;;
13408;SDS011;6775;49.574;11.170;2023-05-07T10:00:02;4.40;;;3.73;;
13408;SDS011;6775;49.574;11.170;2023-05-07T10:02:32;4.97;;;4.47;;
13408;SDS011;6775;49.574;11.170;2023-05-07T10:05:02;4.40;;;3.97;;
13408;SDS011;6775;49.574;11.170;2023-05-07T10:07:31;5.23;;;4.23;;
13408;SDS011;6775;49.574;11.170;2023-05-07T10:09:59;4.30;;;3.90;;
13408;SDS011;6775;49.574;11.170;2023-05-07T10:12:27;3.90;;;3.60;;
13408;SDS011;6775;49.574;11.170;2023-05-07T10:14:57;3.60;;;3.30;;
13408;SDS011;6775;49.574;11.170;2023-05-07T10:17:26;4.30;;;3.90;;
13408;SDS011;6775;49.574;11.170;2023-05-07T10:19:54;4.30;;;3.90;;
13408;SDS011;6775;49.574;11.170;2023-05-07T10:22:22;4.00;;;3.70;;
13408;SDS011;6775;49.574;11.170;2023-05-07T10:24:53;3.63;;;3.33;;
13408;SDS011;6775;49.574;11.170;2023-05-07T10:27:24;5.87;;;3.30;;
13408;SDS011;6775;49.574;11.170;2023-05-07T10:29:55;4.50;;;4.10;;
13408;SDS011;6775;49.574;11.170;2023-05-07T10:32:33;4.00;;;3.60;;
13408;SDS011;6775;49.574;11.170;2023-05-07T10:35:06;4.00;;;3.70;;
13408;SDS011;6775;49.574;11.170;2023-05-07T10:37:38;3.67;;;3.33;;
13408;SDS011;6775;49.574;11.170;2023-05-07T10:40:07;3.60;;;3.30;;
13408;SDS011;6775;49.574;11.170;2023-05-07T10:42:37;4.43;;;4.03;;
13408;SDS011;6775;49.574;11.170;2023-05-07T10:45:15;3.87;;;3.47;;
13408;SDS011;6775;49.574;11.170;2023-05-07T10:50:52;3.73;;;3.40;;
13408;SDS011;6775;49.574;11.170;2023-05-07T10:53:47;3.00;;;2.77;;
13408;SDS011;6775;49.574;11.170;2023-05-07T10:56:24;3.70;;;3.40;;
13408;SDS011;6775;49.574;11.170;2023-05-07T10:58:54;3.40;;;3.10;;
13408;SDS011;6775;49.574;11.170;2023-05-07T11:04:22;4.03;;;3.60;;
13408;SDS011;6775;49.574;11.170;2023-05-07T11:07:18;4.13;;;3.10;;
13408;SDS011;6775;49.574;11.170;2023-05-07T11:09:55;3.63;;;3.33;;
13408;SDS011;6775;49.574;11.170;2023-05-07T11:15:36;4.40;;;3.30;;
13408;SDS011;6775;49.574;11.170;2023-05-07T11:18:11;3.57;;;3.10;;
13408;SDS011;6775;49.574;11.170;2023-05-07T11:20:44;3.93;;;3.20;;
13408;SDS011;6775;49.574;11.170;2023-05-07T11:26:46;3.40;;;3.10;;
13408;SDS011;6775;49.574;11.170;2023-05-07T11:29:16;3.00;;;2.80;;
13408;SDS011;6775;49.574;11.170;2023-05-07T11:31:48;3.80;;;3.10;;
13408;SDS011;6775;49.574;11.170;2023-05-07T11:34:22;3.30;;;3.00;;
13408;SDS011;6775;49.574;11.170;2023-05-07T11:36:51;3.10;;;2.80;;
13408;SDS011;6775;49.574;11.170;2023-05-07T11:39:29;3.30;;;3.00;;
13408;SDS011;6775;49.574;11.170;2023-05-07T11:41:59;3.10;;;2.80;;
13408;SDS011;6775;49.574;11.170;2023-05-07T11:44:40;2.90;;;2.63;;
13408;SDS011;6775;49.574;11.170;2023-05-07T11:47:09;3.10;;;2.80;;
13408;SDS011;6775;49.574;11.170;2023-05-07T11:49:39;3.30;;;3.00;;
13408;SDS011;6775;49.574;11.170;2023-05-07T11:52:07;3.63;;;2.70;;
13408;SDS011;6775;49.574;11.170;2023-05-07T11:54:35;2.83;;;2.33;;
13408;SDS011;6775;49.574;11.170;2023-05-07T11:57:03;2.70;;;2.50;;
13408;SDS011;6775;49.574;11.170;2023-05-07T11:59:37;3.70;;;2.60;;
13408;SDS011;6775;49.574;11.170;2023-05-07T12:02:07;2.80;;;2.60;;
13408;SDS011;6775;49.574;11.170;2023-05-07T12:04:34;2.30;;;2.10;;
13408;SDS011;6775;49.574;11.170;2023-05-07T12:07:04;2.07;;;1.90;;
13408;SDS011;6775;49.574;11.170;2023-05-07T12:09:32;2.50;;;2.30;;
13408;SDS011;6775;49.574;11.170;2023-05-07T12:12:03;2.60;;;2.40;;
13408;SDS011;6775;49.574;11.170;2023-05-07T12:14:31;2.30;;;2.10;;
13408;SDS011;6775;49.574;11.170;2023-05-07T12:17:00;2.60;;;2.40;;
13408;SDS011;6775;49.574;11.170;2023-05-07T12:19:29;2.70;;;2.07;;
13408;SDS011;6775;49.574;11.170;2023-05-07T12:21:58;2.70;;;2.33;;
13408;SDS011;6775;49.574;11.170;2023-05-07T12:24:27;2.07;;;1.97;;
13408;SDS011;6775;49.574;11.170;2023-05-07T12:26:55;2.43;;;2.23;;
13408;SDS011;6775;49.574;11.170;2023-05-07T12:29:22;3.53;;;3.23;;
13408;SDS011;6775;49.574;11.170;2023-05-07T12:31:50;4.67;;;3.50;;
13408;SDS011;6775;49.574;11.170;2023-05-07T12:34:18;3.50;;;3.20;;
13408;SDS011;6775;49.574;11.170;2023-05-07T12:36:46;4.13;;;3.10;;
13408;SDS011;6775;49.574;11.170;2023-05-07T12:39:15;3.50;;;2.80;;
13408;SDS011;6775;49.574;11.170;2023-05-07T12:41:53;3.00;;;2.80;;
13408;SDS011;6775;49.574;11.170;2023-05-07T12:44:22;3.30;;;3.00;;
13408;SDS011;6775;49.574;11.170;2023-05-07T12:46:50;3.60;;;2.97;;
13408;SDS011;6775;49.574;11.170;2023-05-07T12:49:18;4.37;;;2.83;;
13408;SDS011;6775;49.574;11.170;2023-05-07T12:51:50;3.13;;;2.60;;
13408;SDS011;6775;49.574;11.170;2023-05-07T12:54:27;2.60;;;2.33;;
13408;SDS011;6775;49.574;11.170;2023-05-07T12:57:04;3.00;;;2.57;;
13408;SDS011;6775;49.574;11.170;2023-05-07T12:59:33;2.43;;;2.23;;
13408;SDS011;6775;49.574;11.170;2023-05-07T13:02:02;2.50;;;2.30;;
13408;SDS011;6775;49.574;11.170;2023-05-07T13:04:30;2.97;;;2.77;;
13408;SDS011;6775;49.574;11.170;2023-05-07T13:06:58;2.93;;;2.50;;
13408;SDS011;6775;49.574;11.170;2023-05-07T13:09:26;3.30;;;3.00;;
13408;SDS011;6775;49.574;11.170;2023-05-07T13:11:55;2.60;;;2.40;;
13408;SDS011;6775;49.574;11.170;2023-05-07T13:14:24;2.90;;;2.67;;
13408;SDS011;6775;49.574;11.170;2023-05-07T13:16:52;3.10;;;2.83;;
13408;SDS011;6775;49.574;11.170;2023-05-07T13:19:19;3.43;;;2.70;;
13408;SDS011;6775;49.574;11.170;2023-05-07T13:21:47;3.60;;;2.90;;
13408;SDS011;6775;49.574;11.170;2023-05-07T13:24:15;3.10;;;2.80;;
13408;SDS011;6775;49.574;11.170;2023-05-07T13:26:43;2.87;;;2.60;;
13408;SDS011;6775;49.574;11.170;2023-05-07T13:29:11;3.00;;;2.70;;
13408;SDS011;6775;49.574;11.170;2023-05-07T13:31:40;2.53;;;2.33;;
13408;SDS011;6775;49.574;11.170;2023-05-07T13:34:10;3.87;;;3.20;;
13408;SDS011;6775;49.574;11.170;2023-05-07T13:36:37;5.07;;;3.30;;
13408;SDS011;6775;49.574;11.170;2023-05-07T13:39:07;4.97;;;2.93;;
13408;SDS011;6775;49.574;11.170;2023-05-07T13:41:35;3.57;;;2.93;;
13408;SDS011;6775;49.574;11.170;2023-05-07T13:44:03;3.67;;;2.77;;
13408;SDS011;6775;49.574;11.170;2023-05-07T13:46:31;3.20;;;2.80;;
13408;SDS011;6775;49.574;11.170;2023-05-07T13:49:00;2.77;;;2.57;;
13408;SDS011;6775;49.574;11.170;2023-05-07T13:51:28;3.33;;;3.03;;
13408;SDS011;6775;49.574;11.170;2023-05-07T13:53:56;3.63;;;2.77;;
13408;SDS011;6775;49.574;11.170;2023-05-07T13:56:24;3.20;;;2.27;;
13408;SDS011;6775;49.574;11.170;2023-05-07T13:58:52;2.43;;;2.10;;
13408;SDS011;6775;49.574;11.170;2023-05-07T14:01:26;2.70;;;2.50;;
13408;SDS011;6775;49.574;11.170;2023-05-07T14:03:55;3.20;;;2.90;;
13408;SDS011;6775;49.574;11.170;2023-05-07T14:06:24;2.77;;;2.57;;
13408;SDS011;6775;49.574;11.170;2023-05-07T14:08:52;2.67;;;2.33;;
13408;SDS011;6775;49.574;11.170;2023-05-07T14:11:20;2.90;;;2.40;;
13408;SDS011;6775;49.574;11.170;2023-05-07T14:13:48;2.43;;;2.23;;
13408;SDS011;6775;49.574;11.170;2023-05-07T14:16:16;2.60;;;2.40;;
13408;SDS011;6775;49.574;11.170;2023-05-07T14:18:43;2.23;;;2.03;;
13408;SDS011;6775;49.574;11.170;2023-05-07T14:21:11;2.43;;;2.23;;
13408;SDS011;6775;49.574;11.170;2023-05-07T14:23:41;3.27;;;2.30;;
13408;SDS011;6775;49.574;11.170;2023-05-07T14:26:09;2.50;;;2.30;;
13408;SDS011;6775;49.574;11.170;2023-05-07T14:28:37;2.50;;;2.30;;
13408;SDS011;6775;49.574;11.170;2023-05-07T14:31:05;3.00;;;2.47;;
13408;SDS011;6775;49.574;11.170;2023-05-07T14:33:33;3.67;;;2.53;;
13408;SDS011;6775;49.574;11.170;2023-05-07T14:36:01;3.10;;;2.80;;
13408;SDS011;6775;49.574;11.170;2023-05-07T14:38:29;2.50;;;2.30;;
13408;SDS011;6775;49.574;11.170;2023-05-07T14:41:00;3.07;;;2.77;;
13408;SDS011;6775;49.574;11.170;2023-05-07T14:43:28;2.43;;;2.23;;
13408;SDS011;6775;49.574;11.170;2023-05-07T14:45:55;2.43;;;2.23;;
13408;SDS011;6775;49.574;11.170;2023-05-07T14:48:23;4.03;;;2.70;;
13408;SDS011;6775;49.574;11.170;2023-05-07T14:50:51;5.90;;;2.83;;
13408;SDS011;6775;49.574;11.170;2023-05-07T14:53:19;3.43;;;2.60;;
13408;SDS011;6775;49.574;11.170;2023-05-07T14:55:47;3.37;;;2.50;;
13408;SDS011;6775;49.574;11.170;2023-05-07T14:58:17;3.70;;;2.97;;
13408;SDS011;6775;49.574;11.170;2023-05-07T15:00:44;4.73;;;2.53;;
13408;SDS011;6775;49.574;11.170;2023-05-07T15:03:12;3.43;;;2.37;;
13408;SDS011;6775;49.574;11.170;2023-05-07T15:05:41;3.93;;;2.47;;
13408;SDS011;6775;49.574;11.170;2023-05-07T15:08:08;3.43;;;2.37;;
13408;SDS011;6775;49.574;11.170;2023-05-07T15:10:37;2.83;;;2.00;;